createdAt,value
2022-10-21T00:02:10.386Z,99693.59
2022-10-21T00:04:55.982Z,99693.81
2022-10-21T00:07:41.514Z,99689.63
2022-10-21T00:10:26.924Z,99692.97
2022-10-21T00:13:12.311Z,99692.84
2022-10-21T00:16:03.679Z,99677.09
2022-10-21T00:18:49.520Z,99689.94
2022-10-21T00:21:36.953Z,99672.09
2022-10-21T00:24:22.480Z,99662.41
2022-10-21T00:27:07.965Z,99657.00
2022-10-21T00:29:53.410Z,99651.09
2022-10-21T00:32:39.699Z,99640.72
2022-10-21T00:35:25.670Z,99635.47
2022-10-21T00:38:11.122Z,99630.13
2022-10-21T00:40:56.806Z,99626.00
2022-10-21T00:43:59.920Z,99623.38
2022-10-21T00:46:54.185Z,99614.16
2022-10-21T00:50:00.244Z,99608.25
2022-10-21T00:52:46.091Z,99607.91
2022-10-21T00:55:36.382Z,99616.19
2022-10-21T00:58:26.721Z,99604.59
2022-10-21T01:01:12.107Z,99608.88
2022-10-21T01:03:57.342Z,99599.06
2022-10-21T01:06:42.958Z,99604.16
2022-10-21T01:09:29.725Z,99591.59
2022-10-21T01:12:40.658Z,99590.31
2022-10-21T01:15:37.112Z,99574.16
2022-10-21T01:18:51.145Z,99572.72
2022-10-21T01:21:39.733Z,99556.34
2022-10-21T01:24:46.612Z,99559.06
2022-10-21T01:28:10.415Z,99557.34
2022-10-21T01:31:13.733Z,99554.00
2022-10-21T01:34:37.535Z,99553.69
2022-10-21T01:37:37.626Z,99544.72
2022-10-21T01:40:34.848Z,99534.09
2022-10-21T01:43:54.455Z,99534.78
2022-10-21T01:46:56.749Z,99547.72
2022-10-21T01:49:58.103Z,99543.41
2022-10-21T01:52:48.416Z,99530.28
2022-10-21T01:55:34.863Z,99520.75
2022-10-21T01:58:24.416Z,99513.69
2022-10-21T02:01:12.873Z,99505.91
2022-10-21T02:04:02.486Z,99489.56
2022-10-21T02:06:47.821Z,99489.75
2022-10-21T02:09:33.129Z,99487.75
2022-10-21T02:12:20.961Z,99483.19
2022-10-21T02:15:09.938Z,99470.25
2022-10-21T02:18:07.154Z,99467.69
2022-10-21T02:20:59.734Z,99470.81
2022-10-21T02:23:56.315Z,99460.03
2022-10-21T02:26:41.982Z,99442.16
2022-10-21T02:29:34.188Z,99440.28
2022-10-21T02:32:44.293Z,99428.03
2022-10-21T02:35:43.468Z,99423.69
2022-10-21T02:38:33.624Z,99415.75
2022-10-21T02:41:23.503Z,99417.97
2022-10-21T02:44:09.949Z,99418.03
2022-10-21T02:46:55.289Z,99413.72
2022-10-21T02:49:40.479Z,99412.63
2022-10-21T02:52:25.985Z,99397.44
2022-10-21T02:55:12.152Z,99383.88
2022-10-21T02:57:57.403Z,99389.81
2022-10-21T03:00:42.843Z,99387.47
2022-10-21T03:03:30.028Z,99374.66
2022-10-21T03:06:15.353Z,99365.47
2022-10-21T03:09:00.950Z,99365.63
2022-10-21T03:11:46.166Z,99357.66
2022-10-21T03:14:31.590Z,99347.38
2022-10-21T03:17:20.410Z,99333.44
2022-10-21T03:20:08.651Z,99332.41
2022-10-21T03:22:54.128Z,99326.97
2022-10-21T03:25:39.663Z,99323.38
2022-10-21T03:28:24.913Z,99324.38
2022-10-21T03:31:10.454Z,99312.50
2022-10-21T03:33:55.779Z,99309.00
2022-10-21T03:36:40.995Z,99301.72
2022-10-21T03:39:26.393Z,99290.41
2022-10-21T03:42:11.707Z,99275.09
2022-10-21T03:44:57.084Z,99267.34
2022-10-21T03:47:42.508Z,99262.84
2022-10-21T03:50:27.844Z,99257.94
2022-10-21T03:53:24.451Z,99244.41
2022-10-21T03:56:16.089Z,99244.47
2022-10-21T03:59:01.349Z,99239.97
2022-10-21T04:01:46.707Z,99242.31
2022-10-21T04:04:32.701Z,99245.97
2022-10-21T04:07:18.178Z,99236.31
2022-10-21T04:10:05.164Z,99219.56
2022-10-21T04:12:51.017Z,99210.81
2022-10-21T04:15:36.621Z,99201.38
2022-10-21T04:18:22.016Z,99198.19
2022-10-21T04:21:08.942Z,99191.88
2022-10-21T04:23:54.170Z,99185.03
2022-10-21T04:26:39.597Z,99181.50
2022-10-21T04:29:24.933Z,99173.75
2022-10-21T04:32:10.567Z,99174.88
2022-10-21T04:34:56.327Z,99163.41
2022-10-21T04:37:41.837Z,99163.53
2022-10-21T04:40:27.817Z,99151.09
2022-10-21T04:43:13.269Z,99136.03
2022-10-21T04:45:58.937Z,99147.72
2022-10-21T04:48:44.580Z,99151.34
2022-10-21T04:54:15.572Z,99136.00
2022-10-21T04:57:01.126Z,99126.75
2022-10-21T04:59:46.616Z,99124.06
2022-10-21T05:02:32.044Z,99122.84
2022-10-21T05:05:17.435Z,99131.13
2022-10-21T05:08:03.142Z,99112.84
2022-10-21T05:10:48.626Z,99123.00
2022-10-21T05:13:34.224Z,99125.75
2022-10-21T05:16:19.776Z,99123.34
2022-10-21T05:19:05.131Z,99124.59
2022-10-21T05:21:50.481Z,99121.00
2022-10-21T05:24:35.719Z,99113.72
2022-10-21T05:27:21.163Z,99102.28
2022-10-21T05:30:07.370Z,99092.28
2022-10-21T05:32:52.887Z,99084.16
2022-10-21T05:35:38.533Z,99093.88
2022-10-21T05:38:24.299Z,99088.88
2022-10-21T05:41:11.094Z,99094.19
2022-10-21T05:43:56.821Z,99093.47
2022-10-21T05:46:42.545Z,99074.06
2022-10-21T05:49:28.027Z,99073.88
2022-10-21T05:52:13.668Z,99067.75
2022-10-21T05:54:59.286Z,99059.81
2022-10-21T05:57:44.816Z,99046.22
2022-10-21T06:00:30.533Z,99034.16
2022-10-21T06:03:15.947Z,99034.25
2022-10-21T06:06:04.271Z,99037.09
2022-10-21T06:08:49.690Z,99031.88
2022-10-21T06:11:35.259Z,99029.38
2022-10-21T06:14:20.632Z,99020.84
2022-10-21T06:17:06.064Z,99020.78
2022-10-21T06:19:51.584Z,99010.94
2022-10-21T06:22:37.017Z,98998.97
2022-10-21T06:25:23.847Z,98998.16
2022-10-21T06:28:09.278Z,98986.78
2022-10-21T06:30:55.591Z,98992.16
2022-10-21T06:33:41.440Z,98986.03
2022-10-21T06:36:26.975Z,98988.56
2022-10-21T06:39:12.354Z,98984.16
2022-10-21T06:41:58.872Z,98991.94
2022-10-21T06:45:00.171Z,98985.75
2022-10-21T06:47:46.034Z,98972.59
2022-10-21T06:50:31.503Z,98983.63
2022-10-21T06:53:17.109Z,98976.53
2022-10-21T06:56:08.100Z,98979.97
2022-10-21T06:58:57.237Z,98953.19
2022-10-21T07:01:59.131Z,98964.47
2022-10-21T07:04:49.152Z,98962.81
2022-10-21T07:07:34.940Z,98959.94
2022-10-21T07:10:20.335Z,98955.56
2022-10-21T07:13:05.827Z,98953.78
2022-10-21T07:15:59.604Z,98953.66
2022-10-21T07:18:45.247Z,98944.97
2022-10-21T07:21:32.289Z,98948.41
2022-10-21T07:24:22.288Z,98939.78
2022-10-21T07:27:08.209Z,98939.19
2022-10-21T07:29:53.564Z,98953.94
2022-10-21T07:32:38.851Z,98948.34
2022-10-21T07:35:24.323Z,98955.31
2022-10-21T07:38:11.976Z,98955.03
2022-10-21T07:40:59.069Z,98936.72
2022-10-21T07:43:44.592Z,98940.06
2022-10-21T07:46:30.490Z,98931.94
2022-10-21T07:49:17.957Z,98937.53
2022-10-21T07:52:03.768Z,98932.22
2022-10-21T07:54:49.541Z,98937.44
2022-10-21T07:57:34.891Z,98936.34
2022-10-21T08:00:21.015Z,98936.63
2022-10-21T08:03:06.592Z,98924.50
2022-10-21T08:05:52.697Z,98921.19
2022-10-21T08:08:39.728Z,98917.88
2022-10-21T08:11:29.710Z,98922.66
2022-10-21T08:14:15.818Z,98921.59
2022-10-21T08:17:01.456Z,98922.00
2022-10-21T08:19:47.018Z,98920.47
2022-10-21T08:22:32.520Z,98927.97
2022-10-21T08:25:17.894Z,98940.09
2022-10-21T08:28:04.831Z,98932.22
2022-10-21T08:30:50.675Z,98942.91
2022-10-21T08:33:36.849Z,98939.50
2022-10-21T08:36:25.217Z,98941.53
2022-10-21T08:39:10.916Z,98938.91
2022-10-21T08:42:17.734Z,98922.13
2022-10-21T08:45:08.490Z,98922.97
2022-10-21T08:47:59.308Z,98916.09
2022-10-21T08:50:50.883Z,98920.91
2022-10-21T08:53:41.635Z,98899.38
2022-10-21T08:56:30.188Z,98913.03
2022-10-21T08:59:26.424Z,98913.31
2022-10-21T09:03:00.294Z,98908.09
2022-10-21T09:06:03.999Z,98902.78
2022-10-21T09:09:07.931Z,98907.91
2022-10-21T09:12:13.291Z,98919.06
2022-10-21T09:15:38.064Z,98913.59
2022-10-21T09:19:14.390Z,98911.66
2022-10-21T09:22:10.797Z,98911.38
2022-10-21T09:25:17.737Z,98908.53
2022-10-21T09:28:12.325Z,98918.56
2022-10-21T09:31:01.877Z,98911.84
2022-10-21T09:33:53.912Z,98920.34
2022-10-21T09:36:48.179Z,98924.47
2022-10-21T09:39:42.544Z,98914.75
2022-10-21T09:42:46.342Z,98926.81
2022-10-21T09:45:36.061Z,98919.31
2022-10-21T09:49:08.190Z,98920.16
2022-10-21T09:51:49.311Z,98921.84
2022-10-21T09:54:39.976Z,98912.03
2022-10-21T09:57:57.562Z,98917.28
2022-10-21T10:00:50.146Z,98917.13
2022-10-21T10:03:45.708Z,98913.38
2022-10-21T10:06:32.428Z,98918.19
2022-10-21T10:09:37.065Z,98914.09
2022-10-21T10:12:25.812Z,98910.69
2022-10-21T10:15:26.929Z,98904.88
2022-10-21T10:18:24.755Z,98912.75
2022-10-21T10:21:22.098Z,98900.63
2022-10-21T10:24:17.525Z,98894.81
2022-10-21T10:27:11.358Z,98901.31
2022-10-21T10:29:59.962Z,98899.13
2022-10-21T10:32:46.522Z,98902.31
2022-10-21T10:35:35.879Z,98901.63
2022-10-21T10:38:33.170Z,98906.81
2022-10-21T10:41:19.158Z,98900.16
2022-10-21T10:44:39.052Z,98897.25
2022-10-21T10:47:31.595Z,98903.16
2022-10-21T10:50:42.277Z,98903.38
2022-10-21T10:53:34.273Z,98892.53
2022-10-21T10:56:26.683Z,98890.97
2022-10-21T10:59:12.037Z,98897.53
2022-10-21T11:02:13.064Z,98884.66
2022-10-21T11:05:14.180Z,98883.19
2022-10-21T11:08:39.125Z,98886.94
2022-10-21T11:11:36.991Z,98892.41
2022-10-21T11:14:23.456Z,98893.03
2022-10-21T11:17:19.920Z,98897.09
2022-10-21T11:20:20.390Z,98888.91
2022-10-21T11:23:15.451Z,98899.47
2022-10-21T11:26:16.213Z,98890.94
2022-10-21T11:29:20.361Z,98878.22
2022-10-21T11:32:20.143Z,98870.13
2022-10-21T11:35:42.738Z,98859.84
2022-10-21T11:38:43.457Z,98860.41
2022-10-21T11:41:51.719Z,98860.06
2022-10-21T11:45:07.758Z,98856.94
2022-10-21T11:48:24.117Z,98876.47
2022-10-21T11:51:18.706Z,98879.84
2022-10-21T11:54:13.196Z,98876.03
2022-10-21T11:57:25.774Z,98870.41
2022-10-21T12:00:17.604Z,98860.38
2022-10-21T12:03:18.008Z,98861.72
2022-10-21T12:06:13.738Z,98863.06
2022-10-21T12:09:42.638Z,98862.59
2022-10-21T12:12:35.124Z,98859.06
2022-10-21T12:15:27.298Z,98861.59
2022-10-21T12:18:19.155Z,98879.25
2022-10-21T12:21:06.548Z,98879.41
2022-10-21T12:24:07.532Z,98880.03
2022-10-21T12:26:58.829Z,98880.19
2022-10-21T12:29:57.041Z,98879.44
2022-10-21T12:32:42.618Z,98885.78
2022-10-21T12:38:47.397Z,98882.81
2022-10-21T12:41:37.831Z,98884.50
2022-10-21T12:44:28.276Z,98890.38
2022-10-21T12:47:30.759Z,98883.84
2022-10-21T12:50:19.747Z,98888.31
2022-10-21T12:53:08.234Z,98883.66
2022-10-21T12:55:56.295Z,98882.13
2022-10-21T12:58:46.276Z,98884.19
2022-10-21T13:01:42.445Z,98879.66
2022-10-21T13:04:34.144Z,98889.19
2022-10-21T13:07:31.045Z,98900.06
2022-10-21T13:10:24.709Z,98882.66
2022-10-21T13:13:38.585Z,98876.69
2022-10-21T13:16:24.108Z,98875.84
2022-10-21T13:19:15.472Z,98873.00
2022-10-21T13:22:03.470Z,98875.72
2022-10-21T13:24:50.169Z,98878.09
2022-10-21T13:27:38.804Z,98881.56
2022-10-21T13:30:39.351Z,98885.81
2022-10-21T13:33:33.019Z,98895.72
2022-10-21T13:36:33.299Z,98901.13
2022-10-21T13:39:28.445Z,98900.72
2022-10-21T13:42:17.510Z,98899.00
2022-10-21T13:45:33.261Z,98905.53
2022-10-21T13:48:21.334Z,98889.53
2022-10-21T13:51:16.038Z,98899.22
2022-10-21T13:54:12.952Z,98903.69
2022-10-21T13:57:06.574Z,98909.66
2022-10-21T14:00:09.029Z,98902.19
2022-10-21T14:03:01.368Z,98898.41
2022-10-21T14:05:56.707Z,98902.88
2022-10-21T14:08:45.922Z,98903.44
2022-10-21T14:11:37.387Z,98900.72
2022-10-21T14:14:25.751Z,98894.66
2022-10-21T14:17:24.459Z,98898.75
2022-10-21T14:20:16.554Z,98903.00
2022-10-21T14:23:08.738Z,98892.16
2022-10-21T14:26:02.637Z,98901.84
2022-10-21T14:28:50.053Z,98902.69
2022-10-21T14:31:36.108Z,98895.19
2022-10-21T14:34:25.321Z,98889.53
2022-10-21T14:37:11.808Z,98899.47
2022-10-21T14:40:21.136Z,98892.41
2022-10-21T14:43:20.786Z,98885.31
2022-10-21T14:46:09.228Z,98886.22
2022-10-21T14:49:03.485Z,98886.16
2022-10-21T14:51:49.926Z,98886.06
2022-10-21T14:54:44.981Z,98893.94
2022-10-21T14:57:42.410Z,98888.53
2022-10-21T15:00:32.492Z,98892.94
2022-10-21T15:03:36.813Z,98895.19
2022-10-21T15:06:28.729Z,98890.97
2022-10-21T15:09:13.973Z,98882.94
2022-10-21T15:12:18.039Z,98882.81
2022-10-21T15:15:03.876Z,98885.28
2022-10-21T15:17:49.496Z,98885.00
2022-10-21T15:20:35.117Z,98884.59
2022-10-21T15:23:25.737Z,98879.94
2022-10-21T15:26:25.404Z,98877.75
2022-10-21T15:29:36.874Z,98884.09
2022-10-21T15:32:26.865Z,98884.09
2022-10-21T15:35:19.925Z,98888.00
2022-10-21T15:38:05.307Z,98891.28
2022-10-21T15:40:50.847Z,98887.28
2022-10-21T15:43:36.189Z,98890.78
2022-10-21T15:46:21.493Z,98885.41
2022-10-21T15:49:16.006Z,98895.88
2022-10-21T15:52:01.595Z,98895.75
2022-10-21T15:54:47.195Z,98905.97
2022-10-21T15:57:32.666Z,98912.59
2022-10-21T16:00:22.363Z,98913.31
2022-10-21T16:03:08.471Z,98918.91
2022-10-21T16:05:53.810Z,98919.06
2022-10-21T16:08:39.342Z,98915.59
2022-10-21T16:11:34.795Z,98922.09
2022-10-21T16:14:29.452Z,98924.84
2022-10-21T16:17:16.626Z,98932.94
2022-10-21T16:20:02.256Z,98936.41
2022-10-21T16:22:47.915Z,98944.00
2022-10-21T16:25:34.232Z,98939.19
2022-10-21T16:28:19.522Z,98949.28
2022-10-21T16:31:09.324Z,98961.59
2022-10-21T16:33:55.125Z,98958.34
2022-10-21T16:36:40.828Z,98966.44
2022-10-21T16:39:26.521Z,98970.13
2022-10-21T16:42:11.920Z,98969.25
2022-10-21T16:44:57.283Z,98974.63
2022-10-21T16:47:48.308Z,98978.22
2022-10-21T16:50:39.724Z,98987.81
2022-10-21T16:53:29.100Z,98985.34
2022-10-21T16:56:15.115Z,98990.81
2022-10-21T16:59:00.575Z,98988.88
2022-10-21T17:01:46.368Z,98994.03
2022-10-21T17:04:31.614Z,98997.03
2022-10-21T17:07:17.104Z,98998.75
2022-10-21T17:10:02.611Z,98997.25
2022-10-21T17:12:48.154Z,98993.91
2022-10-21T17:15:33.646Z,99007.00
2022-10-21T17:18:19.149Z,98993.13
2022-10-21T17:21:05.782Z,99003.00
2022-10-21T17:23:52.642Z,99002.94
2022-10-21T17:26:38.589Z,98996.94
2022-10-21T17:29:24.205Z,99020.53
2022-10-21T17:32:12.265Z,99015.34
2022-10-21T17:34:58.563Z,99007.63
2022-10-21T17:37:49.200Z,99018.03
2022-10-21T17:40:34.538Z,99018.88
2022-10-21T17:43:20.224Z,99031.22
2022-10-21T17:46:06.257Z,99027.78
2022-10-21T17:48:54.660Z,99039.78
2022-10-21T17:51:40.044Z,99039.78
2022-10-21T17:54:28.534Z,99036.31
2022-10-21T17:57:15.313Z,99038.72
2022-10-21T18:02:50.153Z,99038.03
2022-10-21T18:05:35.808Z,99043.13
2022-10-21T18:08:22.192Z,99038.72
2022-10-21T18:11:10.483Z,99049.41
2022-10-21T18:13:56.251Z,99042.53
2022-10-21T18:16:42.037Z,99042.66
2022-10-21T18:19:28.520Z,99048.78
2022-10-21T18:22:14.963Z,99051.34
2022-10-21T18:25:00.531Z,99057.63
2022-10-21T18:27:45.986Z,99051.66
2022-10-21T18:30:33.019Z,99057.56
2022-10-21T18:33:18.696Z,99059.53
2022-10-21T18:36:12.604Z,99067.38
2022-10-21T18:38:59.813Z,99073.50
2022-10-21T18:41:45.541Z,99071.72
2022-10-21T18:44:31.667Z,99070.22
2022-10-21T18:47:17.601Z,99080.50
2022-10-21T18:50:03.744Z,99084.84
2022-10-21T18:52:49.415Z,99088.22
2022-10-21T18:55:39.196Z,99093.22
2022-10-21T18:58:24.782Z,99090.13
2022-10-21T19:01:11.866Z,99090.13
2022-10-21T19:03:57.615Z,99087.19
2022-10-21T19:06:46.313Z,99097.03
2022-10-21T19:09:31.845Z,99099.91
2022-10-21T19:12:20.943Z,99097.59
2022-10-21T19:15:09.880Z,99093.47
2022-10-21T19:17:55.294Z,99097.13
2022-10-21T19:20:40.943Z,99103.25
2022-10-21T19:23:27.971Z,99095.31
2022-10-21T19:26:14.472Z,99093.75
2022-10-21T19:29:05.831Z,99103.31
2022-10-21T19:31:52.110Z,99104.16
2022-10-21T19:34:37.643Z,99104.09
2022-10-21T19:37:22.895Z,99113.53
2022-10-21T19:40:08.749Z,99099.97
2022-10-21T19:42:54.216Z,99107.94
2022-10-21T19:45:39.503Z,99112.41
2022-10-21T19:48:24.977Z,99121.19
2022-10-21T19:51:15.457Z,99120.22
2022-10-21T19:54:06.980Z,99124.34
2022-10-21T19:56:52.970Z,99126.97
2022-10-21T19:59:39.051Z,99125.91
2022-10-21T20:02:24.849Z,99125.59
2022-10-21T20:05:10.455Z,99124.41
2022-10-21T20:07:56.115Z,99127.63
2022-10-21T20:10:41.435Z,99131.34
2022-10-21T20:13:27.036Z,99144.38
2022-10-21T20:16:23.590Z,99142.75
2022-10-21T20:19:11.106Z,99143.34
2022-10-21T20:21:56.795Z,99146.84
2022-10-21T20:24:45.651Z,99146.34
2022-10-21T20:27:32.015Z,99147.25
2022-10-21T20:30:17.479Z,99155.31
2022-10-21T20:33:02.837Z,99155.38
2022-10-21T20:35:48.457Z,99156.97
2022-10-21T20:38:34.426Z,99158.72
2022-10-21T20:41:30.919Z,99156.09
2022-10-21T20:44:17.154Z,99166.53
2022-10-21T20:47:02.558Z,99169.13
2022-10-21T20:49:47.799Z,99165.47
2022-10-21T20:52:33.267Z,99170.00
2022-10-21T20:55:19.438Z,99174.22
2022-10-21T20:58:05.023Z,99167.25
2022-10-21T21:00:51.282Z,99176.66
2022-10-21T21:03:39.273Z,99171.06
2022-10-21T21:06:24.692Z,99178.91
2022-10-21T21:12:16.649Z,99184.34
2022-10-21T21:15:02.200Z,99187.88
2022-10-21T21:17:48.961Z,99193.88
2022-10-21T21:20:34.667Z,99201.81
2022-10-21T21:23:19.990Z,99197.59
2022-10-21T21:26:08.493Z,99203.72
2022-10-21T21:28:54.309Z,99208.03
2022-10-21T21:31:40.239Z,99214.78
2022-10-21T21:34:25.597Z,99211.75
2022-10-21T21:37:10.876Z,99218.63
2022-10-21T21:39:56.226Z,99217.84
2022-10-21T21:42:41.857Z,99221.44
2022-10-21T21:45:27.428Z,99216.47
2022-10-21T21:48:14.027Z,99226.88
2022-10-21T21:51:04.903Z,99226.94
2022-10-21T21:53:50.704Z,99227.06
2022-10-21T21:56:36.545Z,99234.75
2022-10-21T21:59:23.985Z,99237.66
2022-10-21T22:02:10.043Z,99237.19
2022-10-21T22:04:55.639Z,99241.56
2022-10-21T22:07:41.525Z,99242.28
2022-10-21T22:10:28.158Z,99243.94
2022-10-21T22:13:13.681Z,99250.13
2022-10-21T22:15:59.865Z,99256.91
2022-10-21T22:18:46.078Z,99259.66
2022-10-21T22:21:32.332Z,99262.34
2022-10-21T22:24:17.608Z,99266.72
2022-10-21T22:27:03.160Z,99258.06
2022-10-21T22:29:48.721Z,99259.03
2022-10-21T22:32:35.494Z,99257.56
2022-10-21T22:35:21.044Z,99256.91
2022-10-21T22:38:06.479Z,99267.56
2022-10-21T22:40:56.231Z,99276.22
2022-10-21T22:43:43.058Z,99279.78
2022-10-21T22:46:33.941Z,99277.06
2022-10-21T22:49:20.307Z,99274.22
2022-10-21T22:52:05.689Z,99277.75
2022-10-21T22:54:51.167Z,99282.28
2022-10-21T22:57:36.379Z,99290.16
2022-10-21T23:00:21.861Z,99288.47
2022-10-21T23:03:08.978Z,99297.09
2022-10-21T23:05:55.530Z,99305.66
2022-10-21T23:08:41.429Z,99300.44
2022-10-21T23:11:28.417Z,99301.31
2022-10-21T23:14:14.512Z,99295.19
2022-10-21T23:16:59.795Z,99304.72
2022-10-21T23:19:45.209Z,99315.16
2022-10-21T23:22:30.815Z,99318.59
2022-10-21T23:25:17.258Z,99324.63
2022-10-21T23:28:03.943Z,99327.06
2022-10-21T23:30:49.494Z,99328.81
2022-10-21T23:33:34.783Z,99329.72
2022-10-21T23:36:20.145Z,99330.66
2022-10-21T23:39:06.480Z,99327.00
2022-10-21T23:41:51.766Z,99332.34
2022-10-21T23:44:37.176Z,99342.00
2022-10-21T23:47:22.961Z,99345.50
2022-10-21T23:50:09.614Z,99349.06
2022-10-21T23:52:55.344Z,99351.69
2022-10-21T23:55:40.803Z,99352.59
2022-10-21T23:58:26.234Z,99357.00
